Time;durP1;ratioP1;P1;durP2;ratioP2;P2;SDS_P1;SDS_P2;PMS_P1;PMS_P2;Temp;Humidity;BMP_temperature;BMP_pressure;BME280_temperature;BME280_humidity;BME280_pressure;Samples;Min_cycle;Max_cycle;Signal;HPM_P1;HPM_P2
2023/09/23 00:01:15;;;;;;;;;2.00;2.00;;;;;15.52;51.81;100669.56;5086732;27;45394;-66
2023/09/23 00:03:41;;;;;;;;;0.75;0.75;;;;;15.50;52.19;100661.69;5084676;28;45460;-66
2023/09/23 00:06:07;;;;;;;;;1.75;0.75;;;;;15.50;51.97;100664.34;5097462;27;45460;-66
2023/09/23 00:08:32;;;;;;;;;0.50;0.50;;;;;15.49;52.27;100667.91;5074800;27;45555;-66
2023/09/23 00:10:57;;;;;;;;;3.00;1.75;;;;;15.47;52.24;100664.47;5088377;27;47012;-66
2023/09/23 00:13:23;;;;;;;;;1.25;0.50;;;;;15.52;52.09;100680.16;5091866;27;45334;-66
2023/09/23 00:15:52;;;;;;;;;3.75;1.25;;;;;15.50;52.35;100671.44;5095887;27;45339;-66
2023/09/23 00:18:18;;;;;;;;;2.50;2.00;;;;;15.52;52.51;100678.41;5067923;28;45325;-66
2023/09/23 00:20:44;;;;;;;;;3.75;2.75;;;;;15.48;52.02;100676.75;5098104;27;46196;-66
2023/09/23 00:23:10;;;;;;;;;1.75;1.75;;;;;15.50;52.27;100680.22;5084332;28;45548;-66
2023/09/23 00:25:36;;;;;;;;;1.00;1.00;;;;;15.48;52.32;100679.41;5087531;27;50975;-66
2023/09/23 00:28:02;;;;;;;;;1.75;1.75;;;;;15.50;52.69;100682.88;5093053;27;45327;-66
2023/09/23 00:30:28;;;;;;;;;1.25;1.00;;;;;15.51;52.24;100684.63;5093861;27;45431;-66
2023/09/23 00:32:53;;;;;;;;;1.00;1.00;;;;;15.48;52.64;100681.22;5098249;27;45370;-66
2023/09/23 00:35:19;;;;;;;;;2.75;1.00;;;;;15.49;52.23;100686.44;5086069;27;45395;-66
2023/09/23 00:37:49;;;;;;;;;1.25;1.25;;;;;15.51;52.14;100686.38;5084285;28;45509;-66
2023/09/23 00:40:27;;;;;;;;;1.75;1.75;;;;;15.49;52.51;100686.44;5099692;27;45482;-66
2023/09/23 00:42:55;;;;;;;;;2.50;2.50;;;;;15.49;52.36;100697.03;5069495;27;45269;-66
2023/09/23 00:45:24;;;;;;;;;1.00;0.75;;;;;15.46;52.50;100691.84;5080566;27;45241;-66
2023/09/23 00:47:49;;;;;;;;;2.67;0.67;;;;;15.48;52.65;100692.66;5081342;28;45457;-66
2023/09/23 00:50:20;;;;;;;;;2.75;1.75;;;;;15.47;52.53;100696.25;5095776;27;45213;-66
2023/09/23 00:52:52;;;;;;;;;1.75;0.75;;;;;15.46;52.41;100699.81;5092873;27;45311;-66
2023/09/23 00:55:24;;;;;;;;;0.75;0.75;;;;;15.46;52.36;100694.50;5084287;27;45551;-66
2023/09/23 00:57:53;;;;;;;;;0.25;0.25;;;;;15.41;52.70;100683.22;5090773;27;45396;-66
2023/09/23 01:00:27;;;;;;;;;2.00;2.00;;;;;15.38;52.75;100675.38;5062508;27;48109;-66
2023/09/23 01:02:55;;;;;;;;;5.50;3.25;;;;;15.43;52.67;100697.25;5093349;27;45335;-66
2023/09/23 01:05:21;;;;;;;;;2.75;2.75;;;;;15.42;52.98;100696.41;5089014;27;45241;-66
2023/09/23 01:07:48;;;;;;;;;3.25;3.00;;;;;15.36;52.55;100690.47;5079425;27;45269;-67
2023/09/23 01:10:14;;;;;;;;;9.75;3.75;;;;;15.36;52.78;100693.09;5085275;27;46151;-66
2023/09/23 01:12:39;;;;;;;;;5.00;4.00;;;;;15.28;52.53;100683.63;5090902;27;45161;-66
2023/09/23 01:15:17;;;;;;;;;1.50;1.50;;;;;15.36;52.60;100701.06;5095716;27;45172;-66
2023/09/23 01:17:48;;;;;;;;;2.50;2.25;;;;;15.32;52.85;100700.28;5084092;27;45466;-66
2023/09/23 01:20:15;;;;;;;;;5.75;4.00;;;;;15.34;52.91;100695.78;5089716;27;45232;-66
2023/09/23 01:22:40;;;;;;;;;2.75;2.75;;;;;15.31;52.91;100687.06;5088616;27;45403;-66
2023/09/23 01:25:06;;;;;;;;;3.50;3.50;;;;;15.30;52.94;100688.03;5094539;27;45512;-66
2023/09/23 01:27:34;;;;;;;;;1.75;1.75;;;;;15.31;52.45;100689.72;5082933;27;45626;-66
2023/09/23 01:30:03;;;;;;;;;4.75;3.25;;;;;15.24;52.80;100692.63;5072045;27;48201;-66
2023/09/23 01:32:41;;;;;;;;;2.00;2.00;;;;;15.28;52.63;100699.53;5086803;27;45443;-66
2023/09/23 01:35:07;;;;;;;;;2.25;2.25;;;;;15.24;52.99;100697.03;5081643;27;45441;-66
2023/09/23 01:37:34;;;;;;;;;2.50;2.50;;;;;15.24;52.64;100697.03;5063460;28;45572;-66
2023/09/23 01:39:59;;;;;;;;;2.00;2.00;;;;;15.23;53.19;100706.75;5083791;27;48288;-66
2023/09/23 01:42:24;;;;;;;;;0.50;0.50;;;;;15.18;52.87;100690.19;5082644;27;45253;-66
2023/09/23 01:44:50;;;;;;;;;1.75;1.75;;;;;15.21;52.91;100697.16;5092655;27;45388;-66
2023/09/23 01:47:21;;;;;;;;;0.67;0.67;;;;;15.19;52.92;100702.47;5088583;27;45462;-66
2023/09/23 01:49:46;;;;;;;;;3.00;1.00;;;;;15.20;52.88;100711.28;5090153;27;45324;-70
2023/09/23 01:52:15;;;;;;;;;4.25;1.00;;;;;15.19;53.00;100710.41;5095242;27;45422;-70
2023/09/23 01:54:40;;;;;;;;;0.50;0.50;;;;;15.15;53.48;100716.72;5081655;27;45210;-70
2023/09/23 01:57:06;;;;;;;;;0.50;0.50;;;;;15.17;53.60;100708.72;5093687;27;45315;-70
2023/09/23 01:59:32;;;;;;;;;1.25;0.75;;;;;15.13;53.09;100707.97;5082737;27;45356;-70
2023/09/23 02:01:58;;;;;;;;;1.00;1.00;;;;;15.11;53.39;100710.66;5084705;27;45232;-70
2023/09/23 02:04:24;;;;;;;;;1.50;0.50;;;;;15.08;53.35;100715.19;5091421;27;45482;-70
2023/09/23 02:06:49;;;;;;;;;2.75;1.50;;;;;15.10;53.45;100716.03;5091397;27;45519;-71
2023/09/23 02:09:15;;;;;;;;;1.25;1.00;;;;;15.10;53.41;100727.47;5071460;27;46297;-71
2023/09/23 02:11:40;;;;;;;;;2.75;1.50;;;;;15.08;53.70;100723.13;5079880;28;45540;-71
2023/09/23 02:14:06;;;;;;;;;0.67;0.67;;;;;15.08;53.40;100723.13;5063260;28;45555;-71
2023/09/23 02:16:32;;;;;;;;;1.33;0.00;;;;;15.07;53.78;100721.44;5094938;27;45323;-71
2023/09/23 02:18:58;;;;;;;;;2.00;2.00;;;;;15.08;53.78;100725.78;5090186;27;47854;-71
2023/09/23 02:21:25;;;;;;;;;0.50;0.50;;;;;15.07;53.71;100732.88;5069273;27;45713;-71
2023/09/23 02:23:50;;;;;;;;;0.67;0.33;;;;;15.08;53.63;100733.72;5085979;27;45458;-70
2023/09/23 02:26:15;;;;;;;;;0.50;0.50;;;;;15.07;53.76;100732.03;5082384;27;49883;-71
2023/09/23 02:28:41;;;;;;;;;2.75;2.00;;;;;15.06;53.54;100739.06;5090539;27;45324;-71
2023/09/23 02:31:06;;;;;;;;;3.50;3.50;;;;;15.06;53.87;100740.88;5094692;27;45408;-71
2023/09/23 02:33:32;;;;;;;;;2.75;1.25;;;;;15.08;54.07;100754.91;5072516;28;45611;-71
2023/09/23 02:35:58;;;;;;;;;0.67;0.67;;;;;15.07;53.76;100747.91;5083881;27;45330;-71
2023/09/23 02:38:23;;;;;;;;;2.25;1.25;;;;;15.08;53.59;100760.19;5084890;27;46101;-71
2023/09/23 02:40:50;;;;;;;;;1.50;1.50;;;;;15.09;53.79;100756.63;5082836;27;45277;-71
2023/09/23 02:43:19;;;;;;;;;3.33;2.33;;;;;15.10;54.18;100766.31;5090262;27;45429;-71
2023/09/23 02:45:50;;;;;;;;;1.00;1.00;;;;;15.07;54.17;100754.03;5093940;27;45543;-71
2023/09/23 02:48:15;;;;;;;;;2.00;2.00;;;;;15.10;54.23;100761.88;5092947;27;45960;-71
2023/09/23 02:50:41;;;;;;;;;1.50;1.25;;;;;15.06;54.01;100762.03;5081262;27;45248;-71
2023/09/23 02:53:07;;;;;;;;;3.33;1.00;;;;;15.10;54.43;100763.66;5080480;28;45581;-71
2023/09/23 02:55:32;;;;;;;;;1.25;1.25;;;;;15.07;54.11;100758.47;5085745;27;45524;-71
2023/09/23 02:57:58;;;;;;;;;1.00;0.50;;;;;15.08;54.22;100769.00;5088419;27;45461;-71
2023/09/23 03:00:24;;;;;;;;;3.00;2.67;;;;;15.08;54.53;100769.00;5080871;27;45331;-71
2023/09/23 03:02:54;;;;;;;;;1.00;1.00;;;;;15.06;54.19;100764.69;5080649;28;45362;-71
2023/09/23 03:05:34;;;;;;;;;2.75;1.75;;;;;15.03;54.01;100770.06;5093679;27;45170;-71
2023/09/23 03:08:00;;;;;;;;;0.50;0.50;;;;;15.07;53.93;100775.22;5078780;28;45450;-71
2023/09/23 03:10:32;;;;;;;;;0.67;0.67;;;;;15.04;54.24;100775.31;5093754;27;45305;-71
2023/09/23 03:13:07;;;;;;;;;0.50;0.50;;;;;15.04;54.22;100777.97;5094155;27;45346;-71
2023/09/23 03:21:22;;;;;;;;;2.25;1.00;;;;;15.06;54.38;100788.50;5093594;27;45416;-71
2023/09/23 03:23:48;;;;;;;;;2.33;0.33;;;;;15.02;54.07;100789.50;5089895;27;45453;-71
2023/09/23 03:26:14;;;;;;;;;2.00;2.00;;;;;15.03;54.04;100799.16;5086715;27;45474;-71
2023/09/23 03:28:40;;;;;;;;;1.00;1.00;;;;;15.04;54.35;100808.84;5090890;27;45323;-71
2023/09/23 03:31:14;;;;;;;;;2.00;1.00;;;;;15.02;54.64;100810.66;5093497;27;45342;-71
2023/09/23 03:33:41;;;;;;;;;0.00;0.00;;;;;14.98;54.40;100815.22;5058393;28;45312;-71
2023/09/23 03:36:14;;;;;;;;;3.00;1.00;;;;;14.98;54.55;100823.16;5081602;27;45422;-71
2023/09/23 03:38:39;;;;;;;;;0.00;0.00;;;;;14.99;53.73;100821.34;5086528;27;45477;-71
2023/09/23 03:41:04;;;;;;;;;0.00;0.00;;;;;14.95;54.51;100821.47;5093531;27;45426;-71
2023/09/23 03:43:30;;;;;;;;;2.67;1.00;;;;;14.95;54.33;100828.53;5092390;27;45349;-71
2023/09/23 03:45:56;;;;;;;;;1.00;1.00;;;;;14.93;54.30;100836.50;5086510;27;45423;-71
2023/09/23 03:48:22;;;;;;;;;2.33;0.00;;;;;14.95;54.41;100825.88;5087953;27;45416;-71
2023/09/23 03:50:52;;;;;;;;;0.00;0.00;;;;;14.89;54.46;100829.59;5078234;28;45279;-71
2023/09/23 03:53:21;;;;;;;;;0.67;0.67;;;;;14.92;53.92;100840.06;5077973;28;45473;-71
2023/09/23 03:55:47;;;;;;;;;1.33;1.33;;;;;14.90;54.54;100839.25;5068459;27;45351;-71
2023/09/23 03:58:13;;;;;;;;;0.00;0.00;;;;;14.87;54.37;100835.84;5081470;27;47220;-71
2023/09/23 04:00:39;;;;;;;;;1.67;1.67;;;;;14.87;54.01;100836.69;5066226;27;45576;-71
2023/09/23 04:03:05;;;;;;;;;1.00;1.00;;;;;14.83;54.38;100828.91;5087769;27;45333;-71
2023/09/23 04:05:31;;;;;;;;;3.25;1.00;;;;;14.82;54.17;100830.69;5092986;27;45430;-71
2023/09/23 04:07:57;;;;;;;;;0.75;0.75;;;;;14.78;54.42;100829.06;5066206;28;45643;-71
2023/09/23 04:10:23;;;;;;;;;1.00;1.00;;;;;14.81;54.15;100831.59;5083902;27;45256;-71
2023/09/23 04:12:49;;;;;;;;;1.50;1.00;;;;;14.79;54.70;100831.66;5087743;27;45336;-71
2023/09/23 04:15:15;;;;;;;;;0.00;0.00;;;;;14.78;54.36;100843.13;5092994;27;45396;-71
2023/09/23 04:17:40;;;;;;;;;1.50;1.00;;;;;14.77;54.51;100841.41;5092300;27;46170;-71
2023/09/23 04:20:09;;;;;;;;;3.00;0.75;;;;;14.77;54.21;100841.41;5087152;27;45246;-71
2023/09/23 04:22:38;;;;;;;;;1.50;1.50;;;;;14.76;54.74;100852.03;5090224;27;45227;-71
2023/09/23 04:25:05;;;;;;;;;2.00;1.00;;;;;14.72;54.19;100845.09;5088984;27;45414;-71
2023/09/23 04:27:32;;;;;;;;;1.00;1.00;;;;;14.72;54.50;100847.75;5096392;27;47239;-71
2023/09/23 04:29:58;;;;;;;;;1.50;1.00;;;;;14.69;54.08;100837.25;5072691;27;45775;-71
2023/09/23 04:32:24;;;;;;;;;1.25;0.00;;;;;14.67;54.24;100844.38;5088667;27;45474;-71
2023/09/23 04:34:49;;;;;;;;;2.25;1.00;;;;;14.68;54.40;100857.56;5064458;28;46514;-71
2023/09/23 04:37:15;;;;;;;;;0.50;0.50;;;;;14.65;54.58;100851.47;5064341;27;46787;-71
2023/09/23 04:39:40;;;;;;;;;3.00;1.00;;;;;14.63;54.59;100857.66;5091605;27;45502;-71
2023/09/23 04:42:05;;;;;;;;;1.75;1.00;;;;;14.60;54.64;100855.09;5089528;27;45599;-71
2023/09/23 04:44:32;;;;;;;;;3.75;1.00;;;;;14.61;54.66;100863.91;5094185;27;59323;-71
2023/09/23 04:46:57;;;;;;;;;1.00;1.00;;;;;14.60;54.44;100873.63;5095827;27;46242;-71
2023/09/23 04:49:23;;;;;;;;;0.67;0.00;;;;;14.56;54.83;100877.25;5091458;27;45345;-71
2023/09/23 04:51:48;;;;;;;;;2.75;1.00;;;;;14.55;54.33;100879.94;5089579;27;45301;-71
2023/09/23 04:54:13;;;;;;;;;1.50;1.25;;;;;14.54;54.86;100880.84;5090979;27;45289;-71
2023/09/23 04:56:41;;;;;;;;;1.00;0.00;;;;;14.47;54.74;100880.16;5096080;27;45472;-71
2023/09/23 04:59:07;;;;;;;;;3.00;1.75;;;;;14.49;54.68;100891.56;5084052;27;45271;-71
2023/09/23 05:01:32;;;;;;;;;4.00;1.25;;;;;14.48;54.95;100897.75;5082641;27;45506;-71
2023/09/23 05:03:59;;;;;;;;;2.50;1.25;;;;;14.47;54.94;100901.31;5096000;27;45644;-71
2023/09/23 05:06:25;;;;;;;;;3.25;2.00;;;;;14.44;54.96;100896.13;5062935;28;46914;-71
2023/09/23 05:08:50;;;;;;;;;4.00;1.50;;;;;14.40;54.78;100895.34;5068672;27;45202;-71
2023/09/23 05:11:17;;;;;;;;;1.50;1.50;;;;;14.38;54.50;100891.84;5084436;27;45458;-71
2023/09/23 05:13:42;;;;;;;;;3.00;1.50;;;;;14.37;54.72;100908.63;5082487;27;45411;-71
2023/09/23 05:16:07;;;;;;;;;3.00;2.00;;;;;14.35;54.93;100899.00;5095807;27;46212;-71
2023/09/23 05:18:33;;;;;;;;;1.00;1.00;;;;;14.36;54.91;100908.66;5068909;27;45299;-71
2023/09/23 05:20:58;;;;;;;;;2.00;2.00;;;;;14.34;54.50;100910.47;5095615;27;45497;-71
2023/09/23 05:23:24;;;;;;;;;2.00;2.00;;;;;14.32;54.87;100907.03;5088753;27;45452;-71
2023/09/23 05:25:50;;;;;;;;;1.75;0.25;;;;;14.33;54.57;100920.19;5088630;27;45328;-71
2023/09/23 05:28:15;;;;;;;;;1.00;1.00;;;;;14.30;54.79;100923.78;5066740;28;45433;-71
2023/09/23 05:30:41;;;;;;;;;2.00;0.25;;;;;14.28;55.13;100920.31;5094898;27;45360;-71
2023/09/23 05:33:10;;;;;;;;;0.75;0.75;;;;;14.29;54.60;100923.84;5068684;27;45510;-71
2023/09/23 05:35:38;;;;;;;;;2.00;1.00;;;;;14.25;54.88;100922.16;5076790;27;47217;-71
2023/09/23 05:38:03;;;;;;;;;3.00;1.50;;;;;14.26;54.71;100937.13;5063608;28;45537;-71
2023/09/23 05:40:29;;;;;;;;;2.00;2.00;;;;;14.23;55.15;100939.84;5063851;27;45337;-71
2023/09/23 05:42:55;;;;;;;;;1.00;1.00;;;;;14.24;54.96;100952.16;5094220;27;45397;-71
2023/09/23 05:45:24;;;;;;;;;1.00;1.00;;;;;14.19;54.95;100948.75;5062898;27;47931;-71
2023/09/23 05:47:50;;;;;;;;;4.75;2.00;;;;;14.19;55.17;100954.94;5089960;27;45229;-71
2023/09/23 05:50:17;;;;;;;;;2.00;2.00;;;;;14.16;55.05;100954.97;5088183;27;45378;-71
2023/09/23 05:52:45;;;;;;;;;0.00;0.00;;;;;14.17;54.97;100966.44;5093692;27;45545;-71
2023/09/23 05:55:11;;;;;;;;;1.00;1.00;;;;;14.16;55.07;100970.00;5083027;27;45880;-71
2023/09/23 05:57:38;;;;;;;;;1.00;1.00;;;;;14.12;55.11;100970.09;5093202;27;45311;-71
2023/09/23 06:00:05;;;;;;;;;1.50;1.25;;;;;14.14;54.73;100980.59;5081396;27;45351;-71
2023/09/23 06:02:31;;;;;;;;;3.00;2.75;;;;;14.12;55.11;100985.94;5089215;27;45644;-71
2023/09/23 06:04:56;;;;;;;;;2.00;1.00;;;;;14.09;54.87;100980.72;5087602;27;45954;-71
2023/09/23 06:07:24;;;;;;;;;3.00;1.00;;;;;14.08;55.26;100992.19;5085534;27;45315;-71
2023/09/23 06:09:50;;;;;;;;;2.00;0.00;;;;;14.11;55.29;101002.69;5076912;27;45345;-71
2023/09/23 06:12:15;;;;;;;;;0.75;0.75;;;;;14.10;54.94;101006.25;5093844;27;45401;-71
2023/09/23 06:14:40;;;;;;;;;0.75;0.75;;;;;14.06;54.64;101009.88;5063990;27;50169;-72
2023/09/23 06:17:06;;;;;;;;;2.00;1.00;;;;;14.07;55.40;101018.66;5071915;28;45271;-71
2023/09/23 06:19:33;;;;;;;;;1.00;1.00;;;;;14.05;55.08;101015.16;5074735;27;57455;-71
2023/09/23 06:21:58;;;;;;;;;2.00;1.00;;;;;14.07;55.02;101023.94;5088881;27;45263;-71
2023/09/23 06:24:24;;;;;;;;;2.00;1.00;;;;;14.05;54.98;101018.69;5076848;27;46203;-71
2023/09/23 06:26:50;;;;;;;;;3.75;1.00;;;;;14.09;54.96;101030.06;5093095;27;45240;-72
2023/09/23 06:29:15;;;;;;;;;2.00;2.00;;;;;14.10;54.90;101029.13;5081645;27;45247;-70
2023/09/23 06:31:41;;;;;;;;;2.50;2.50;;;;;14.06;55.24;101038.03;5062361;28;45507;-70
2023/09/23 06:34:06;;;;;;;;;4.25;2.00;;;;;14.09;54.96;101033.56;5080416;27;45478;-71
2023/09/23 06:36:32;;;;;;;;;1.00;1.00;;;;;14.11;54.88;101046.72;5089756;27;45255;-73
2023/09/23 06:38:58;;;;;;;;;2.25;1.00;;;;;14.12;55.19;101052.00;5065122;27;45465;-67
2023/09/23 06:41:23;;;;;;;;;2.50;2.50;;;;;14.13;55.29;101044.94;5089123;27;53538;-76
2023/09/23 06:43:48;;;;;;;;;5.75;2.00;;;;;14.12;55.45;101043.19;5086593;27;45559;-76
2023/09/23 06:46:14;;;;;;;;;4.00;2.00;;;;;14.11;55.03;101044.97;5091746;27;47600;-76
2023/09/23 06:48:40;;;;;;;;;3.00;1.75;;;;;14.14;55.30;101046.69;5080777;27;45347;-77
2023/09/23 06:51:08;;;;;;;;;2.75;2.75;;;;;14.10;55.64;101042.34;5082594;27;45539;-78
2023/09/23 06:53:34;;;;;;;;;3.50;2.00;;;;;14.17;55.38;101053.66;5084580;27;47119;-79
2023/09/23 06:56:00;;;;;;;;;2.00;2.00;;;;;14.16;55.44;101060.69;5071616;27;45534;-76
2023/09/23 06:58:25;;;;;;;;;1.00;1.00;;;;;14.14;55.42;101058.09;5086374;27;45217;-79
2023/09/23 07:00:51;;;;;;;;;1.00;0.50;;;;;14.16;55.35;101068.63;5079740;27;45319;-78
2023/09/23 07:03:16;;;;;;;;;2.00;2.00;;;;;14.16;55.11;101071.28;5093973;27;45406;-76
2023/09/23 07:05:42;;;;;;;;;2.00;2.00;;;;;14.17;55.04;101078.31;5069046;27;45477;-78
2023/09/23 07:08:08;;;;;;;;;2.50;2.50;;;;;14.17;55.45;101073.00;5072224;27;45395;-79
2023/09/23 07:10:38;;;;;;;;;4.75;3.00;;;;;14.20;55.11;101077.34;5087808;27;45871;-77
2023/09/23 07:13:04;;;;;;;;;3.00;1.75;;;;;14.24;55.18;101090.47;5082420;27;46657;-78
2023/09/23 07:15:35;;;;;;;;;2.00;2.00;;;;;14.25;55.18;101092.22;5088345;27;45233;-79
2023/09/23 07:18:00;;;;;;;;;2.00;2.00;;;;;14.25;55.45;101086.03;5082304;27;45319;-78
2023/09/23 07:20:26;;;;;;;;;2.25;1.75;;;;;14.29;55.43;101093.00;5088880;27;46135;-78
2023/09/23 07:22:52;;;;;;;;;2.00;2.00;;;;;14.28;55.47;101094.78;5086769;27;45494;-77
2023/09/23 07:25:17;;;;;;;;;2.50;2.50;;;;;14.30;55.06;101105.31;5069257;28;45725;-70
2023/09/23 07:27:45;;;;;;;;;3.75;2.00;;;;;14.30;55.11;101105.31;5078043;27;45298;-75
2023/09/23 07:30:11;;;;;;;;;2.75;2.00;;;;;14.35;55.40;101108.72;5069347;27;45336;-75
2023/09/23 07:32:39;;;;;;;;;3.00;3.00;;;;;14.39;55.56;101112.16;5056877;27;46889;-77
2023/09/23 07:35:05;;;;;;;;;4.75;3.00;;;;;14.41;55.16;101121.78;5061522;28;45373;-76
2023/09/23 07:37:31;;;;;;;;;2.00;2.00;;;;;14.43;55.47;101121.75;5091328;27;45204;-75
2023/09/23 07:39:56;;;;;;;;;2.75;2.00;;;;;14.49;55.30;101124.25;5090246;27;45166;-75
2023/09/23 07:42:21;;;;;;;;;3.00;3.00;;;;;14.47;55.41;101120.78;5086259;27;54841;-73
2023/09/23 07:44:47;;;;;;;;;3.25;2.00;;;;;14.50;55.33;101127.75;5089883;27;50723;-76
2023/09/23 07:47:13;;;;;;;;;4.75;2.25;;;;;14.54;55.42;101127.66;5093317;27;45251;-75
2023/09/23 07:49:39;;;;;;;;;37.50;32.50;;;;;14.62;55.42;101135.41;5089907;27;45342;-74
2023/09/23 07:52:04;;;;;;;;;75.25;65.25;;;;;14.61;55.70;101134.50;5086292;27;45174;-76
2023/09/23 07:54:30;;;;;;;;;9.00;8.50;;;;;14.67;55.29;101136.19;5069085;27;45456;-77
2023/09/23 07:56:55;;;;;;;;;28.00;24.75;;;;;14.69;55.51;101146.72;5096500;27;45313;-75
2023/09/23 07:59:21;;;;;;;;;8.00;3.00;;;;;14.75;55.47;101151.84;5063771;28;45478;-75
2023/09/23 08:01:47;;;;;;;;;13.00;11.00;;;;;14.78;55.26;101157.09;5084747;27;45541;-75
2023/09/23 08:04:12;;;;;;;;;1.25;1.00;;;;;14.84;55.46;101164.88;5095319;27;45337;-76
2023/09/23 08:06:38;;;;;;;;;3.00;1.00;;;;;14.87;55.42;101169.22;5081115;27;45505;-75
2023/09/23 08:09:04;;;;;;;;;2.00;1.25;;;;;14.86;55.43;101173.63;5071516;27;45307;-77
2023/09/23 08:11:30;;;;;;;;;0.50;0.50;;;;;14.91;55.60;101177.00;5096563;27;46048;-74
2023/09/23 08:13:56;;;;;;;;;3.00;1.75;;;;;14.94;55.44;101178.72;5090529;27;45433;-74
2023/09/23 08:16:21;;;;;;;;;1.00;0.50;;;;;14.96;55.37;101182.19;5069914;28;45488;-74
2023/09/23 08:18:46;;;;;;;;;2.75;1.50;;;;;15.04;54.99;101193.47;5090609;27;45570;-74
2023/09/23 08:21:11;;;;;;;;;0.75;0.75;;;;;15.09;55.31;101202.16;5067326;28;46744;-76
2023/09/23 08:23:37;;;;;;;;;1.25;0.50;;;;;15.16;55.27;101199.34;5091380;27;45508;-75
2023/09/23 08:26:04;;;;;;;;;1.50;1.50;;;;;15.21;55.44;101202.75;5089572;27;45183;-72
2023/09/23 08:28:30;;;;;;;;;2.50;2.00;;;;;15.25;55.50;101202.59;5089609;27;45666;-74
2023/09/23 08:30:56;;;;;;;;;1.75;0.25;;;;;15.37;55.00;101219.06;5080176;27;45450;-73
2023/09/23 08:33:21;;;;;;;;;0.25;0.00;;;;;15.42;55.18;101210.13;5093994;27;45362;-72
2023/09/23 08:35:48;;;;;;;;;0.75;0.75;;;;;15.47;55.30;101204.72;5084487;27;45328;-73
2023/09/23 08:38:14;;;;;;;;;2.00;0.75;;;;;15.59;54.92;101212.28;5093057;27;45463;-72
2023/09/23 08:40:42;;;;;;;;;1.00;0.00;;;;;15.70;55.44;101219.09;5096008;27;45381;-75
2023/09/23 08:43:08;;;;;;;;;2.50;0.75;;;;;15.78;55.58;101211.78;5091611;27;45265;-64
2023/09/23 08:45:46;;;;;;;;;1.00;1.00;;;;;15.86;55.46;101208.94;5089501;27;45232;-69
2023/09/23 08:48:12;;;;;;;;;2.75;1.00;;;;;15.98;55.22;101219.19;5092092;27;45437;-65
2023/09/23 08:50:43;;;;;;;;;0.00;0.00;;;;;16.07;55.22;101218.94;5095503;27;45430;-65
2023/09/23 08:53:09;;;;;;;;;1.67;0.33;;;;;16.12;55.14;101223.22;5091485;27;45387;-69
2023/09/23 08:55:34;;;;;;;;;1.00;1.00;;;;;16.24;55.27;101222.88;5087382;27;45490;-68
2023/09/23 08:58:03;;;;;;;;;2.00;1.00;;;;;16.36;54.70;101227.81;5090791;27;45368;-70
2023/09/23 09:00:29;;;;;;;;;2.00;0.00;;;;;16.47;55.22;101238.06;5082073;27;45483;-69
2023/09/23 09:02:55;;;;;;;;;1.00;1.00;;;;;16.57;54.97;101233.34;5093408;27;45570;-63
2023/09/23 09:05:20;;;;;;;;;1.00;1.00;;;;;16.66;55.30;101238.34;5097216;27;48040;-63
2023/09/23 09:07:46;;;;;;;;;1.00;1.00;;;;;16.78;55.29;101239.75;5070359;27;45330;-63
2023/09/23 09:10:11;;;;;;;;;1.00;1.00;;;;;16.85;55.12;101230.66;5084333;27;45314;-63
2023/09/23 09:12:37;;;;;;;;;1.67;1.33;;;;;16.98;54.97;101240.91;5072937;28;45347;-63
2023/09/23 09:15:03;;;;;;;;;0.00;0.00;;;;;17.10;54.95;101242.31;5095917;27;45658;-63
2023/09/23 09:17:33;;;;;;;;;1.00;1.00;;;;;17.21;54.83;101254.28;5093713;27;45407;-63
2023/09/23 09:20:09;;;;;;;;;0.00;0.00;;;;;17.28;54.68;101236.38;5088446;27;47069;-63
2023/09/23 09:22:36;;;;;;;;;1.00;1.00;;;;;17.43;54.68;101250.03;5088768;27;45798;-61
2023/09/23 09:25:03;;;;;;;;;1.00;1.00;;;;;17.53;54.58;101246.13;5095139;27;45295;-62
2023/09/23 09:27:29;;;;;;;;;1.00;1.00;;;;;17.60;54.27;101245.00;5095201;27;45525;-61
2023/09/23 09:29:54;;;;;;;;;1.00;1.00;;;;;17.69;54.18;101242.00;5089085;27;46283;-62
2023/09/23 09:32:29;;;;;;;;;0.00;0.00;;;;;17.82;54.40;101252.19;5088139;27;45240;-62
2023/09/23 09:35:00;;;;;;;;;1.00;1.00;;;;;17.85;54.14;101242.31;5070505;27;45496;-62
2023/09/23 09:37:27;;;;;;;;;1.67;1.67;;;;;18.00;54.14;101245.38;5095167;27;45312;-61
2023/09/23 09:39:56;;;;;;;;;2.00;1.00;;;;;18.10;54.40;101254.72;5091380;27;46400;-62
2023/09/23 09:42:33;;;;;;;;;1.33;0.33;;;;;18.21;54.19;101249.00;5088381;27;45339;-62
2023/09/23 09:44:58;;;;;;;;;2.00;2.00;;;;;18.30;53.80;101251.31;5086659;27;45253;-57
2023/09/23 09:47:24;;;;;;;;;1.33;1.33;;;;;18.39;53.92;101262.50;5095012;27;45541;-57
2023/09/23 09:49:54;;;;;;;;;1.00;1.00;;;;;18.46;53.35;101269.34;5083273;27;48268;-57
2023/09/23 09:52:23;;;;;;;;;1.67;1.67;;;;;18.50;53.35;101270.94;5088002;27;45327;-57
2023/09/23 09:54:52;;;;;;;;;3.00;1.00;;;;;18.55;53.85;101268.09;5085058;27;45530;-58
2023/09/23 09:57:22;;;;;;;;;1.00;1.00;;;;;18.58;53.70;101271.53;5068410;28;45236;-58
2023/09/23 09:59:48;;;;;;;;;2.00;2.00;;;;;18.61;53.05;101273.19;5069701;28;45565;-58
2023/09/23 10:02:15;;;;;;;;;1.00;1.00;;;;;18.66;53.17;101279.19;5086948;27;45329;-58
2023/09/23 10:04:49;;;;;;;;;3.00;0.33;;;;;18.68;53.02;101280.03;5089125;27;45362;-58
2023/09/23 10:07:16;;;;;;;;;1.00;1.00;;;;;18.72;53.36;101280.78;5087587;27;45352;-58
2023/09/23 10:09:55;;;;;;;;;0.67;0.67;;;;;18.78;52.86;101270.72;5074973;27;47143;-58
2023/09/23 10:12:31;;;;;;;;;0.00;0.00;;;;;18.82;53.20;101275.00;5093015;27;45330;-58
2023/09/23 10:15:01;;;;;;;;;1.00;1.00;;;;;18.89;52.71;101274.75;5095056;27;45305;-58
2023/09/23 10:17:35;;;;;;;;;2.00;0.00;;;;;18.95;52.59;101271.88;5090731;27;45332;-57
2023/09/23 10:20:01;;;;;;;;;1.33;1.00;;;;;19.03;52.76;101285.75;5085978;27;45406;-57
2023/09/23 10:22:29;;;;;;;;;1.00;1.00;;;;;19.09;52.35;101282.81;5089345;27;45283;-57
2023/09/23 10:25:04;;;;;;;;;1.00;1.00;;;;;19.16;52.42;101286.97;5094483;27;45547;-58
2023/09/23 10:27:29;;;;;;;;;1.00;1.00;;;;;19.24;52.75;101281.31;5094575;27;45240;-58
2023/09/23 10:29:55;;;;;;;;;1.00;1.00;;;;;19.33;52.15;101282.72;5088600;27;45227;-57
2023/09/23 10:32:21;;;;;;;;;2.00;1.00;;;;;19.43;52.46;101284.09;5083054;27;45240;-58
2023/09/23 10:34:53;;;;;;;;;0.67;0.00;;;;;19.54;52.12;101285.41;5081061;27;45343;-58
2023/09/23 10:37:32;;;;;;;;;1.00;1.00;;;;;19.58;51.79;101284.34;5092931;27;45541;-58
2023/09/23 10:40:09;;;;;;;;;2.67;1.33;;;;;19.72;51.95;101295.28;5091115;27;46320;-59
2023/09/23 10:42:35;;;;;;;;;0.00;0.00;;;;;19.79;52.23;101302.06;5087543;27;45351;-57
2023/09/23 10:45:01;;;;;;;;;3.67;2.67;;;;;19.85;52.09;101294.75;5089195;27;45689;-58
2023/09/23 10:47:27;;;;;;;;;5.75;5.00;;;;;19.89;51.95;101296.38;5094628;27;45303;-57
2023/09/23 10:49:53;;;;;;;;;2.00;1.00;;;;;19.95;51.58;101301.44;5092737;27;45467;-57
2023/09/23 10:52:20;;;;;;;;;1.00;1.00;;;;;19.95;51.44;101291.59;5087532;27;45228;-57
2023/09/23 10:54:47;;;;;;;;;2.00;0.00;;;;;20.03;51.23;101299.25;5080036;27;45283;-58
2023/09/23 10:57:13;;;;;;;;;2.67;1.33;;;;;20.05;51.64;101302.75;5089187;27;46166;-59
2023/09/23 10:59:39;;;;;;;;;6.00;3.33;;;;;20.09;51.52;101309.66;5071062;28;57942;-59
2023/09/23 11:02:05;;;;;;;;;4.00;0.67;;;;;20.12;50.58;101305.97;5084433;27;45662;-59
2023/09/23 11:04:31;;;;;;;;;1.00;1.00;;;;;20.16;50.71;101309.38;5090124;27;45466;-58
2023/09/23 11:06:56;;;;;;;;;0.00;0.00;;;;;20.19;50.63;101304.78;5092728;27;45371;-58
2023/09/23 11:09:22;;;;;;;;;0.67;0.00;;;;;20.23;50.43;101316.19;5091388;27;46333;-58
2023/09/23 11:11:48;;;;;;;;;0.67;0.00;;;;;20.25;50.82;101314.28;5086979;27;45385;-58
2023/09/23 11:14:14;;;;;;;;;1.00;1.00;;;;;20.28;50.61;101319.50;5090052;27;45263;-58
2023/09/23 11:16:44;;;;;;;;;2.67;0.67;;;;;20.35;50.59;101322.75;5094088;27;45652;-58
2023/09/23 11:19:09;;;;;;;;;0.33;0.33;;;;;20.41;50.53;101317.97;5091899;27;47072;-58
2023/09/23 11:21:44;;;;;;;;;2.00;1.00;;;;;20.50;49.91;101329.19;5087170;27;45451;-58
2023/09/23 11:24:10;;;;;;;;;0.00;0.00;;;;;20.57;49.91;101319.94;5087890;27;45312;-58
2023/09/23 11:26:39;;;;;;;;;0.00;0.00;;;;;20.66;50.31;101314.16;5093586;27;45467;-58
2023/09/23 11:29:04;;;;;;;;;1.00;1.00;;;;;20.77;49.84;101322.56;5093306;27;46353;-59